Time;durP1;ratioP1;P1;durP2;ratioP2;P2;SDS_P1;SDS_P2;PMS_P1;PMS_P2;Temp;Humidity;BMP_temperature;BMP_pressure;BME280_temperature;BME280_humidity;BME280_pressure;Samples;Min_cycle;Max_cycle;Signal;HPM_P1;HPM_P2
2022/01/03 00:01:25;;;;;;;8.57;5.87;;;13.40;99.90;;;;;;5149603;28;20058;-29
2022/01/03 00:03:56;;;;;;;11.40;7.07;;;13.40;99.90;;;;;;5167480;28;20092;-30
2022/01/03 00:06:27;;;;;;;7.47;5.03;;;13.40;99.90;;;;;;5167108;28;20129;-30
2022/01/03 00:08:58;;;;;;;11.67;7.80;;;13.40;99.90;;;;;;5166402;28;20124;-28
2022/01/03 00:11:29;;;;;;;8.43;5.50;;;13.40;99.90;;;;;;5165633;28;20129;-30
2022/01/03 00:14:00;;;;;;;11.50;5.73;;;13.50;99.90;;;;;;5167048;28;20068;-28
2022/01/03 00:16:31;;;;;;;8.73;4.90;;;13.40;99.90;;;;;;5166918;28;20046;-29
2022/01/03 00:19:02;;;;;;;8.10;5.20;;;13.50;99.90;;;;;;5166636;28;20132;-29
2022/01/03 00:21:53;;;;;;;6.27;4.63;;;13.50;99.90;;;;;;5167192;28;20074;-30
2022/01/03 00:24:27;;;;;;;8.30;4.67;;;13.50;99.90;;;;;;5166708;28;20046;-28
2022/01/03 00:27:06;;;;;;;6.17;4.17;;;13.50;99.90;;;;;;5165642;28;20062;-29
2022/01/03 00:29:44;;;;;;;7.23;4.97;;;13.40;99.90;;;;;;5167169;28;20133;-29
2022/01/03 00:32:15;;;;;;;7.10;3.80;;;13.50;99.90;;;;;;5166952;28;20125;-30
2022/01/03 00:34:46;;;;;;;8.00;5.20;;;13.50;99.90;;;;;;5165467;28;20479;-29
2022/01/03 00:37:17;;;;;;;7.20;3.90;;;13.40;99.90;;;;;;5165511;28;20038;-29
2022/01/03 00:39:48;;;;;;;6.70;3.33;;;13.40;99.90;;;;;;5165418;28;20148;-29
2022/01/03 00:42:19;;;;;;;6.93;3.33;;;13.40;99.90;;;;;;5165444;28;20072;-28
2022/01/03 00:44:52;;;;;;;6.47;4.20;;;13.40;99.90;;;;;;5165591;28;20400;-30
2022/01/03 00:47:23;;;;;;;10.65;5.72;;;13.30;99.90;;;;;;5166755;28;20042;-28
2022/01/03 00:49:54;;;;;;;9.03;4.67;;;13.30;99.90;;;;;;5165271;28;20050;-28
2022/01/03 00:52:25;;;;;;;6.00;2.60;;;13.30;99.90;;;;;;5166644;28;20096;-29
2022/01/03 00:54:56;;;;;;;6.50;2.80;;;13.40;99.90;;;;;;5165593;28;20377;-30
2022/01/03 00:57:52;;;;;;;5.57;2.80;;;13.40;99.90;;;;;;5165312;28;20046;-30
2022/01/03 01:00:24;;;;;;;5.33;2.60;;;13.40;99.90;;;;;;5166162;28;20070;-29
2022/01/03 01:03:15;;;;;;;4.00;2.00;;;13.40;99.90;;;;;;5165556;28;20176;-30
2022/01/03 01:05:50;;;;;;;4.27;2.50;;;13.40;99.90;;;;;;5166669;28;20117;-29
2022/01/03 01:08:22;;;;;;;5.67;2.83;;;13.40;99.90;;;;;;5166467;28;20483;-28
2022/01/03 01:10:53;;;;;;;4.43;1.87;;;13.30;99.90;;;;;;5169866;28;20090;-29
2022/01/03 01:13:24;;;;;;;3.57;2.30;;;13.30;99.90;;;;;;5169678;28;20451;-29
2022/01/03 01:15:55;;;;;;;5.50;3.10;;;13.30;99.90;;;;;;5170470;28;20506;-28
2022/01/03 01:18:26;;;;;;;7.03;3.50;;;13.40;99.90;;;;;;5170310;28;20042;-30
2022/01/03 01:20:57;;;;;;;4.33;2.00;;;13.40;99.90;;;;;;5168931;28;20078;-30
2022/01/03 01:23:28;;;;;;;7.40;2.70;;;13.40;99.90;;;;;;5169712;28;20077;-29
2022/01/03 01:28:48;;;;;;;3.87;1.97;;;13.40;99.90;;;;;;5169776;28;20061;-28
2022/01/03 01:31:20;;;;;;;4.73;2.43;;;13.50;99.90;;;;;;5169914;28;20491;-28
2022/01/03 01:33:54;;;;;;;4.60;1.83;;;13.50;99.90;;;;;;5152625;28;20121;-28
2022/01/03 01:36:28;;;;;;;2.57;1.77;;;13.40;99.90;;;;;;5168799;28;20451;-29
2022/01/03 01:39:05;;;;;;;5.27;2.17;;;13.40;99.90;;;;;;5170082;28;20158;-28
2022/01/03 01:41:39;;;;;;;5.60;2.83;;;13.40;99.90;;;;;;5169782;28;20082;-29
2022/01/03 01:44:10;;;;;;;5.30;2.30;;;13.50;99.90;;;;;;5167514;28;20054;-28
2022/01/03 01:46:44;;;;;;;4.30;2.40;;;13.40;99.90;;;;;;5167669;28;20054;-29
2022/01/03 01:49:17;;;;;;;5.88;2.40;;;13.50;99.90;;;;;;5167598;28;20140;-29
2022/01/03 01:51:56;;;;;;;6.80;3.60;;;13.50;99.90;;;;;;5167352;28;20101;-30
2022/01/03 01:54:32;;;;;;;6.80;3.10;;;13.50;99.90;;;;;;5167331;28;20054;-30
2022/01/03 01:57:06;;;;;;;6.53;3.30;;;13.40;99.90;;;;;;5167850;28;20454;-30
2022/01/03 01:59:40;;;;;;;6.70;3.23;;;13.40;99.90;;;;;;5167729;28;20075;-28
2022/01/03 02:02:15;;;;;;;6.20;3.13;;;13.40;99.90;;;;;;5167198;28;20089;-30
2022/01/03 02:04:48;;;;;;;5.80;2.40;;;13.40;99.90;;;;;;5167772;28;20054;-29
2022/01/03 02:07:42;;;;;;;7.13;2.93;;;13.30;99.90;;;;;;5167709;28;20133;-29
2022/01/03 02:10:15;;;;;;;6.68;4.00;;;13.30;99.90;;;;;;5166867;28;20065;-28
2022/01/03 02:12:48;;;;;;;7.47;3.27;;;13.30;99.90;;;;;;5167131;28;20050;-30
2022/01/03 02:15:19;;;;;;;6.18;3.25;;;13.40;99.90;;;;;;5175725;28;20062;-28
2022/01/03 02:17:50;;;;;;;4.37;3.03;;;13.30;99.90;;;;;;5168932;28;20063;-28
2022/01/03 02:20:23;;;;;;;6.03;2.90;;;13.40;99.90;;;;;;5150720;28;20042;-30
2022/01/03 02:22:54;;;;;;;5.05;2.88;;;13.40;99.90;;;;;;5168285;28;20042;-28
2022/01/03 02:25:25;;;;;;;5.83;3.63;;;13.40;99.90;;;;;;5169348;28;20392;-30
2022/01/03 02:27:56;;;;;;;7.07;3.87;;;13.40;99.90;;;;;;5167771;28;20080;-28
2022/01/03 02:30:28;;;;;;;11.93;6.47;;;13.50;99.90;;;;;;5168725;28;20046;-28
2022/01/03 02:33:00;;;;;;;11.43;6.30;;;13.40;99.90;;;;;;5169265;28;20574;-28
2022/01/03 02:35:38;;;;;;;8.83;4.23;;;13.50;99.90;;;;;;5169135;28;20122;-29
2022/01/03 02:38:09;;;;;;;7.33;3.63;;;13.50;99.90;;;;;;5167596;28;20046;-30
2022/01/03 02:40:40;;;;;;;9.60;4.80;;;13.40;99.90;;;;;;5168409;28;20062;-29
2022/01/03 02:43:11;;;;;;;8.13;4.20;;;13.50;99.90;;;;;;5167293;28;20093;-29
2022/01/03 02:45:42;;;;;;;7.07;4.13;;;13.40;99.90;;;;;;5168680;28;20073;-30
2022/01/03 02:48:13;;;;;;;6.07;3.67;;;13.40;99.90;;;;;;5168654;28;20046;-29
2022/01/03 02:50:44;;;;;;;6.33;3.17;;;13.40;99.90;;;;;;5168754;28;20057;-29
2022/01/03 02:53:15;;;;;;;5.80;3.07;;;13.50;99.90;;;;;;5167419;28;20046;-30
2022/01/03 02:55:46;;;;;;;6.07;3.37;;;13.40;99.90;;;;;;5167762;28;20052;-29
2022/01/03 02:58:17;;;;;;;9.07;4.70;;;13.40;99.90;;;;;;5168479;28;20076;-30
2022/01/03 03:00:49;;;;;;;7.00;3.30;;;13.40;99.90;;;;;;5168263;28;20116;-30
2022/01/03 03:03:21;;;;;;;6.88;3.05;;;13.40;99.90;;;;;;5168174;28;20100;-28
2022/01/03 03:05:52;;;;;;;5.10;2.70;;;13.40;99.90;;;;;;5167072;28;20042;-30
2022/01/03 03:08:23;;;;;;;5.27;2.77;;;13.40;99.90;;;;;;5166982;28;20125;-28
2022/01/03 03:10:54;;;;;;;6.70;3.40;;;13.40;99.90;;;;;;5168104;28;20467;-29
2022/01/03 03:13:25;;;;;;;8.73;4.00;;;13.50;99.90;;;;;;5168153;28;20039;-28
2022/01/03 03:15:56;;;;;;;11.53;5.83;;;13.40;99.90;;;;;;5167927;28;20476;-28
2022/01/03 03:18:27;;;;;;;9.43;6.90;;;13.50;99.90;;;;;;5168388;28;20459;-28
2022/01/03 03:20:58;;;;;;;7.97;3.97;;;13.50;99.90;;;;;;5168070;28;20050;-29
2022/01/03 03:23:29;;;;;;;8.83;3.53;;;13.50;99.90;;;;;;5167924;28;20049;-30
2022/01/03 03:26:00;;;;;;;5.33;2.40;;;13.40;99.90;;;;;;5150908;28;20127;-28
2022/01/03 03:28:31;;;;;;;7.27;3.40;;;13.40;99.90;;;;;;5166338;28;20467;-30
2022/01/03 03:31:02;;;;;;;5.43;2.77;;;13.40;99.90;;;;;;5166572;28;20042;-30
2022/01/03 03:33:33;;;;;;;5.43;2.27;;;13.40;99.90;;;;;;5167763;28;20062;-29
2022/01/03 03:36:04;;;;;;;5.73;2.33;;;13.40;99.90;;;;;;5166722;28;20144;-30
2022/01/03 03:38:36;;;;;;;5.73;1.97;;;13.40;99.90;;;;;;5167634;28;20045;-30
2022/01/03 03:41:06;;;;;;;6.77;3.10;;;13.30;99.90;;;;;;5167314;28;20050;-30
2022/01/03 03:43:38;;;;;;;8.17;3.80;;;13.30;99.90;;;;;;5167295;28;20104;-28
2022/01/03 03:46:08;;;;;;;6.60;3.57;;;13.30;99.90;;;;;;5166370;28;20050;-28
2022/01/03 03:48:40;;;;;;;8.43;3.97;;;13.40;99.90;;;;;;5150142;28;20507;-29
2022/01/03 03:51:10;;;;;;;5.90;3.10;;;13.30;99.90;;;;;;5165984;28;20050;-30
2022/01/03 03:53:41;;;;;;;5.63;2.93;;;13.30;99.90;;;;;;5167406;28;20069;-30
2022/01/03 03:56:12;;;;;;;7.07;3.27;;;13.30;99.90;;;;;;5166335;28;20073;-29
2022/01/03 03:58:43;;;;;;;6.43;3.20;;;13.30;99.90;;;;;;5167217;28;20042;-28
2022/01/03 04:01:14;;;;;;;7.57;3.20;;;13.30;99.90;;;;;;5167000;28;20121;-29
2022/01/03 04:03:45;;;;;;;5.87;2.40;;;13.30;99.90;;;;;;5167073;28;20479;-28
2022/01/03 04:06:17;;;;;;;7.07;3.40;;;13.30;99.90;;;;;;5167724;28;20125;-28
2022/01/03 04:08:48;;;;;;;6.67;2.97;;;13.30;99.90;;;;;;5166173;28;20046;-29
2022/01/03 04:11:20;;;;;;;4.77;2.90;;;13.40;99.90;;;;;;5166880;28;20113;-30
2022/01/03 04:13:51;;;;;;;4.90;2.93;;;13.30;99.90;;;;;;5165881;28;20046;-30
2022/01/03 04:16:22;;;;;;;6.77;3.30;;;13.30;99.90;;;;;;5166814;28;20053;-28
2022/01/03 04:18:53;;;;;;;5.10;2.43;;;13.40;99.90;;;;;;5166965;28;20038;-29
2022/01/03 04:21:25;;;;;;;7.20;2.77;;;13.30;99.90;;;;;;5166116;28;20057;-30
2022/01/03 04:23:56;;;;;;;4.07;2.42;;;13.30;99.90;;;;;;5166358;28;20042;-30
2022/01/03 04:26:27;;;;;;;5.20;2.63;;;13.30;99.90;;;;;;5165037;28;20407;-30
2022/01/03 04:28:58;;;;;;;5.23;2.33;;;13.30;99.90;;;;;;5165633;28;20046;-29
2022/01/03 04:31:29;;;;;;;7.37;3.23;;;13.40;99.90;;;;;;5166700;28;20479;-30
2022/01/03 04:34:00;;;;;;;5.53;2.80;;;13.40;99.90;;;;;;5166485;28;20062;-28
2022/01/03 04:36:31;;;;;;;6.30;2.87;;;13.50;99.90;;;;;;5165503;28;20046;-29
2022/01/03 04:39:03;;;;;;;8.50;3.90;;;13.70;99.90;;;;;;5165520;28;20384;-28
2022/01/03 04:41:35;;;;;;;5.93;3.73;;;13.80;99.90;;;;;;5164637;28;20065;-28
2022/01/03 04:44:06;;;;;;;5.40;3.27;;;13.50;99.90;;;;;;5148378;28;20070;-29
2022/01/03 04:46:37;;;;;;;6.40;3.53;;;12.70;99.90;;;;;;5167091;28;20419;-28
2022/01/03 04:49:08;;;;;;;4.87;2.87;;;12.30;99.90;;;;;;5149400;28;20054;-28
2022/01/03 04:51:40;;;;;;;4.60;3.07;;;12.10;99.90;;;;;;5149288;28;20490;-28
2022/01/03 04:54:11;;;;;;;7.03;4.97;;;12.00;99.90;;;;;;5166474;28;20062;-29
2022/01/03 04:56:41;;;;;;;8.33;5.23;;;12.00;99.90;;;;;;5166481;28;20476;-28
2022/01/03 04:59:13;;;;;;;9.50;5.07;;;11.90;99.90;;;;;;5148344;28;20407;-29
2022/01/03 05:01:43;;;;;;;6.57;4.30;;;11.80;99.90;;;;;;5166332;28;20042;-28
2022/01/03 05:04:14;;;;;;;10.30;4.57;;;11.80;99.90;;;;;;5166425;28;20054;-29
2022/01/03 05:06:45;;;;;;;8.47;5.47;;;11.80;99.90;;;;;;5166513;28;20043;-29
2022/01/03 05:09:16;;;;;;;9.97;6.47;;;11.70;99.90;;;;;;5166616;28;20427;-28
2022/01/03 05:11:47;;;;;;;9.10;6.07;;;11.80;99.90;;;;;;5147962;28;20055;-28
2022/01/03 05:14:19;;;;;;;10.13;6.23;;;11.80;99.90;;;;;;5146172;28;20053;-29
2022/01/03 05:16:50;;;;;;;10.27;6.70;;;11.80;99.90;;;;;;5145938;28;20468;-29
2022/01/03 05:19:21;;;;;;;8.40;6.00;;;11.80;99.90;;;;;;5146429;28;20373;-28
2022/01/03 05:21:52;;;;;;;8.87;6.47;;;11.80;99.90;;;;;;5146045;28;20053;-29
2022/01/03 05:24:23;;;;;;;8.23;6.40;;;11.70;99.90;;;;;;5145889;28;20145;-28
2022/01/03 05:26:55;;;;;;;8.93;6.60;;;11.70;99.90;;;;;;5145649;28;20063;-29
2022/01/03 05:29:28;;;;;;;9.30;7.03;;;11.70;99.90;;;;;;5143752;28;20467;-29
2022/01/03 05:31:58;;;;;;;10.23;8.00;;;11.60;99.90;;;;;;5145277;28;20447;-28
2022/01/03 05:34:30;;;;;;;10.67;8.73;;;11.60;99.90;;;;;;5144787;28;20050;-28
2022/01/03 05:37:01;;;;;;;11.53;10.30;;;11.50;99.90;;;;;;5145916;28;20050;-28
2022/01/03 05:39:32;;;;;;;11.03;8.73;;;11.40;99.90;;;;;;5145945;28;20069;-28
2022/01/03 05:42:03;;;;;;;12.23;9.63;;;11.40;99.90;;;;;;5145919;28;20074;-29
2022/01/03 05:44:34;;;;;;;15.80;13.57;;;11.40;99.90;;;;;;5146046;28;20516;-28
2022/01/03 05:47:05;;;;;;;18.17;12.90;;;11.30;99.90;;;;;;5146126;28;20075;-28
2022/01/03 05:49:36;;;;;;;14.23;11.30;;;11.40;99.90;;;;;;5144857;28;20445;-29
2022/01/03 05:52:07;;;;;;;13.17;9.53;;;11.30;99.90;;;;;;5145864;28;20043;-28
2022/01/03 05:54:38;;;;;;;10.43;8.63;;;11.30;99.90;;;;;;5145682;28;20051;-28
2022/01/03 05:57:09;;;;;;;12.90;7.50;;;11.30;99.90;;;;;;5149279;28;20074;-29
2022/01/03 05:59:40;;;;;;;12.23;7.30;;;11.50;99.90;;;;;;5149327;28;20126;-29
2022/01/03 06:02:11;;;;;;;25.40;15.67;;;11.90;99.90;;;;;;5149391;28;20504;-28
2022/01/03 06:05:06;;;;;;;35.23;25.57;;;12.20;99.90;;;;;;5149765;28;20408;-28
2022/01/03 06:07:33;;;;;;;29.73;24.03;;;12.40;99.90;;;;;;5148560;28;20047;-29
2022/01/03 06:10:09;;;;;;;18.93;13.73;;;12.70;99.90;;;;;;5153472;28;20407;-28
2022/01/03 06:12:40;;;;;;;11.57;8.67;;;12.90;99.90;;;;;;5169518;28;20042;-28
2022/01/03 06:15:11;;;;;;;11.87;7.90;;;13.00;99.90;;;;;;5169393;28;20042;-29
2022/01/03 06:17:42;;;;;;;15.00;10.13;;;13.10;99.90;;;;;;5169391;28;20403;-30
2022/01/03 06:20:13;;;;;;;17.43;13.17;;;13.20;99.90;;;;;;5151888;28;20424;-28
2022/01/03 06:22:44;;;;;;;14.47;10.17;;;13.30;99.90;;;;;;5169027;28;20042;-29
2022/01/03 06:25:15;;;;;;;63.47;49.03;;;13.40;99.90;;;;;;5168993;28;20046;-28
2022/01/03 06:27:46;;;;;;;19.47;12.23;;;13.40;99.90;;;;;;5135488;28;20054;-30
2022/01/03 06:30:17;;;;;;;26.00;21.50;;;13.50;99.90;;;;;;5168753;28;20054;-30
2022/01/03 06:32:48;;;;;;;22.47;16.47;;;13.50;99.90;;;;;;5169091;28;20393;-29
2022/01/03 06:35:19;;;;;;;22.87;18.73;;;13.60;99.90;;;;;;5168863;28;20065;-29
2022/01/03 06:37:50;;;;;;;50.17;41.90;;;13.60;99.90;;;;;;5168767;28;20129;-29
2022/01/03 06:40:21;;;;;;;23.53;21.03;;;13.70;99.90;;;;;;5168771;28;20109;-30
2022/01/03 06:42:52;;;;;;;14.73;9.60;;;13.70;99.90;;;;;;5169277;28;20047;-30
2022/01/03 06:45:23;;;;;;;11.37;8.20;;;13.70;99.90;;;;;;5168672;28;20070;-30
2022/01/03 06:47:54;;;;;;;13.00;8.77;;;13.70;99.90;;;;;;5168562;28;20073;-28
2022/01/03 06:50:28;;;;;;;12.60;9.60;;;13.70;99.90;;;;;;5168541;28;20069;-28
2022/01/03 06:52:59;;;;;;;;;;;13.80;99.90;;;;;;5168862;28;20477;-29
2022/01/03 06:55:48;;;;;;;13.77;11.30;;;13.70;99.90;;;;;;5168458;28;19964;-30
2022/01/03 06:58:19;;;;;;;16.50;10.93;;;13.80;99.90;;;;;;5168029;28;20409;-29
2022/01/03 07:00:50;;;;;;;17.50;13.57;;;13.80;99.90;;;;;;5168163;28;20047;-30
2022/01/03 07:03:21;;;;;;;20.70;14.80;;;13.90;99.90;;;;;;5168293;28;20484;-28
2022/01/03 07:05:52;;;;;;;21.17;15.40;;;13.90;99.90;;;;;;5167670;28;20046;-30
2022/01/03 07:08:24;;;;;;;22.83;16.73;;;13.90;99.90;;;;;;5166336;28;20113;-29
2022/01/03 07:10:54;;;;;;;18.03;13.93;;;13.90;99.90;;;;;;5168086;28;20093;-30
2022/01/03 07:13:28;;;;;;;18.47;14.17;;;13.90;99.90;;;;;;5167487;28;20368;-28
2022/01/03 07:18:57;;;;;;;16.50;14.43;;;14.00;99.90;;;;;;5125437;28;20061;-30
2022/01/03 07:21:29;;;;;;;16.43;12.97;;;14.00;99.90;;;;;;5167306;28;20047;-29
2022/01/03 07:24:00;;;;;;;20.35;13.32;;;13.90;99.90;;;;;;5150335;28;20049;-30
2022/01/03 07:26:31;;;;;;;19.60;13.73;;;13.90;99.90;;;;;;5149613;28;20046;-30
2022/01/03 07:29:02;;;;;;;17.67;13.27;;;13.90;99.90;;;;;;5159773;28;20043;-29
2022/01/03 07:31:33;;;;;;;16.40;13.13;;;13.90;99.90;;;;;;5165453;28;20503;-29
2022/01/03 07:34:04;;;;;;;16.40;11.87;;;13.90;99.90;;;;;;5165185;28;20521;-29
2022/01/03 07:36:35;;;;;;;17.73;11.87;;;13.90;99.90;;;;;;5165291;28;20038;-29
2022/01/03 07:39:06;;;;;;;16.90;11.63;;;13.90;99.90;;;;;;5148047;28;20488;-30
2022/01/03 07:41:37;;;;;;;20.83;14.70;;;13.90;99.90;;;;;;5165273;28;20038;-30
2022/01/03 07:44:08;;;;;;;23.63;15.57;;;13.90;99.90;;;;;;5165015;28;20070;-29
2022/01/03 07:46:39;;;;;;;27.90;16.77;;;13.90;99.90;;;;;;5154241;28;20073;-29
2022/01/03 07:49:10;;;;;;;29.73;19.23;;;13.90;99.90;;;;;;5171963;28;20053;-29
2022/01/03 07:51:41;;;;;;;27.20;18.00;;;13.90;99.90;;;;;;5165010;28;20046;-29
2022/01/03 07:54:12;;;;;;;28.63;18.40;;;13.80;99.90;;;;;;5165136;28;20814;-29
2022/01/03 07:56:43;;;;;;;37.57;24.47;;;13.80;99.90;;;;;;5147472;28;20050;-28
2022/01/03 07:59:14;;;;;;;25.50;17.13;;;13.90;99.90;;;;;;5135526;28;20125;-30
2022/01/03 08:01:45;;;;;;;28.40;17.80;;;13.80;99.90;;;;;;5163488;28;20042;-29
2022/01/03 08:04:19;;;;;;;25.20;16.80;;;13.80;99.90;;;;;;5164977;28;20038;-28
2022/01/03 08:06:50;;;;;;;22.43;14.60;;;13.80;99.90;;;;;;5164845;28;20089;-29
2022/01/03 08:09:21;;;;;;;19.73;12.77;;;13.80;99.90;;;;;;5167565;28;20046;-29
2022/01/03 08:11:52;;;;;;;32.13;18.53;;;13.80;99.90;;;;;;5165301;28;20081;-30
2022/01/03 08:14:23;;;;;;;22.13;14.67;;;13.80;99.90;;;;;;5164243;28;20050;-30
2022/01/03 08:16:54;;;;;;;28.67;17.77;;;13.80;99.90;;;;;;5163210;28;20042;-29
2022/01/03 08:19:25;;;;;;;29.63;19.40;;;13.80;99.90;;;;;;5163709;28;20038;-29
2022/01/03 08:21:56;;;;;;;29.27;20.03;;;13.80;99.90;;;;;;5164242;28;20395;-29
2022/01/03 08:24:27;;;;;;;27.03;17.73;;;13.80;99.90;;;;;;5164396;28;20042;-29
2022/01/03 08:26:58;;;;;;;28.80;19.47;;;13.80;99.90;;;;;;5164728;28;20077;-28
2022/01/03 08:29:29;;;;;;;31.73;19.57;;;13.80;99.90;;;;;;5164180;28;20034;-30
2022/01/03 08:32:01;;;;;;;34.13;19.40;;;13.80;99.90;;;;;;5164358;28;20137;-28
2022/01/03 08:34:32;;;;;;;27.03;16.83;;;13.80;99.90;;;;;;5162547;28;20062;-28
2022/01/03 08:37:13;;;;;;;27.43;17.83;;;13.80;99.90;;;;;;5164160;28;20922;-30
2022/01/03 08:39:45;;;;;;;33.53;22.07;;;13.70;99.90;;;;;;5164253;28;20054;-29
2022/01/03 08:42:18;;;;;;;21.57;13.17;;;13.70;99.90;;;;;;5163053;28;20042;-28
2022/01/03 08:44:49;;;;;;;;;;;13.80;99.90;;;;;;5163296;28;20510;-30
2022/01/03 08:47:20;;;;;;;19.43;13.83;;;13.70;99.90;;;;;;5164049;28;19929;-28
2022/01/03 08:49:51;;;;;;;24.10;15.23;;;13.80;99.90;;;;;;5164161;28;20113;-30
2022/01/03 08:52:22;;;;;;;21.50;14.93;;;13.70;99.90;;;;;;5164227;28;20173;-30
2022/01/03 08:54:56;;;;;;;19.53;13.67;;;13.70;99.90;;;;;;5162696;28;20053;-28
2022/01/03 08:57:27;;;;;;;18.63;12.70;;;13.70;99.90;;;;;;5163780;28;20046;-28
2022/01/03 08:59:58;;;;;;;23.33;16.10;;;13.70;99.90;;;;;;5149066;28;20098;-29
2022/01/03 09:02:29;;;;;;;21.83;15.50;;;13.70;99.90;;;;;;5146334;28;20046;-28
2022/01/03 09:05:00;;;;;;;20.93;14.90;;;13.70;99.90;;;;;;5145864;28;20046;-29
2022/01/03 09:07:31;;;;;;;40.23;28.90;;;13.70;99.90;;;;;;5146212;28;20502;-29
2022/01/03 09:10:04;;;;;;;28.30;20.07;;;13.70;99.90;;;;;;5149608;28;20051;-29
2022/01/03 09:12:35;;;;;;;25.95;17.55;;;13.70;99.90;;;;;;5165382;28;20065;-29
2022/01/03 09:15:06;;;;;;;28.60;19.70;;;13.70;99.90;;;;;;5116274;28;20516;-30
2022/01/03 09:17:37;;;;;;;44.40;31.83;;;13.70;99.90;;;;;;5165962;28;20046;-30
2022/01/03 09:20:08;;;;;;;32.87;21.07;;;13.80;99.90;;;;;;5148726;28;20154;-28
2022/01/03 09:22:44;;;;;;;25.80;16.70;;;13.80;99.90;;;;;;5148461;28;20053;-28
2022/01/03 09:30:39;;;;;;;23.70;19.07;;;13.80;99.90;;;;;;5154404;28;20049;-28
2022/01/03 09:33:12;;;;;;;25.40;18.37;;;13.80;99.90;;;;;;5169740;28;20389;-29
2022/01/03 09:35:43;;;;;;;18.98;15.25;;;13.80;99.90;;;;;;5169512;28;20047;-29
2022/01/03 09:38:14;;;;;;;24.77;17.60;;;13.80;99.90;;;;;;5169594;28;20403;-29
2022/01/03 09:40:45;;;;;;;21.03;15.47;;;13.80;99.90;;;;;;5169386;28;20557;-29
2022/01/03 09:43:17;;;;;;;16.63;14.53;;;13.80;99.90;;;;;;5169230;28;20049;-29
2022/01/03 09:45:49;;;;;;;14.35;12.80;;;13.80;99.90;;;;;;5169518;28;20046;-30
2022/01/03 09:48:21;;;;;;;17.57;13.50;;;13.80;99.90;;;;;;5169459;28;20088;-28
2022/01/03 09:50:53;;;;;;;15.07;12.32;;;13.80;99.90;;;;;;5120700;28;20085;-28
2022/01/03 09:53:24;;;;;;;18.13;12.63;;;13.80;99.90;;;;;;5151941;28;20096;-29
2022/01/03 09:55:55;;;;;;;14.50;11.10;;;13.80;99.90;;;;;;5151822;28;20050;-29
2022/01/03 09:58:26;;;;;;;15.67;11.23;;;13.90;99.90;;;;;;5169258;28;20042;-30
2022/01/03 10:00:57;;;;;;;16.23;10.40;;;13.90;99.90;;;;;;5151634;28;20400;-30
2022/01/03 10:03:28;;;;;;;15.57;11.07;;;13.90;99.90;;;;;;5168991;28;20058;-30
2022/01/03 10:06:00;;;;;;;11.70;8.93;;;13.90;99.90;;;;;;5151639;28;20512;-30
2022/01/03 10:08:31;;;;;;;13.03;9.37;;;13.90;99.90;;;;;;5135180;28;20121;-30
2022/01/03 10:11:02;;;;;;;19.50;13.13;;;13.90;99.90;;;;;;5168678;28;20512;-30
2022/01/03 10:13:33;;;;;;;22.90;14.93;;;13.90;99.90;;;;;;5135318;28;20046;-28
2022/01/03 10:16:04;;;;;;;18.73;13.03;;;13.90;99.90;;;;;;5168811;28;20046;-30
2022/01/03 10:18:37;;;;;;;13.10;8.73;;;13.90;99.90;;;;;;5151654;28;20058;-28
2022/01/03 10:21:08;;;;;;;11.75;7.97;;;13.90;99.90;;;;;;5135402;28;20046;-30
2022/01/03 10:23:55;;;;;;;13.67;10.33;;;13.90;99.90;;;;;;5169056;28;20046;-28
2022/01/03 10:26:26;;;;;;;15.37;10.13;;;13.90;99.90;;;;;;5119809;28;20054;-30
2022/01/03 10:29:18;;;;;;;15.13;10.33;;;13.90;99.90;;;;;;5169294;28;20097;-28
2022/01/03 10:31:54;;;;;;;14.10;7.80;;;13.90;99.90;;;;;;5168738;28;20046;-29
2022/01/03 10:34:27;;;;;;;13.90;9.13;;;13.90;99.90;;;;;;5120987;28;20050;-29
2022/01/03 10:36:59;;;;;;;13.80;9.70;;;13.90;99.90;;;;;;5168606;28;20046;-29
2022/01/03 10:39:32;;;;;;;7.93;6.33;;;13.90;99.90;;;;;;5119480;28;20370;-30
2022/01/03 10:42:14;;;;;;;9.83;7.00;;;13.90;99.90;;;;;;5167624;28;20492;-30
2022/01/03 10:44:45;;;;;;;15.50;10.37;;;13.90;99.90;;;;;;5168669;28;20126;-28
2022/01/03 10:47:30;;;;;;;12.60;8.90;;;13.90;99.90;;;;;;5118818;28;20057;-30
2022/01/03 10:50:18;;;;;;;9.53;7.47;;;13.90;99.90;;;;;;5168058;28;20121;-29
2022/01/03 10:52:49;;;;;;;9.23;6.60;;;13.80;99.90;;;;;;5151165;28;20072;-29
2022/01/03 10:55:34;;;;;;;9.10;6.27;;;13.80;99.90;;;;;;5168500;28;20125;-29
2022/01/03 10:58:06;;;;;;;12.37;9.57;;;13.80;99.90;;;;;;5152490;28;20049;-30
2022/01/03 11:00:39;;;;;;;7.70;5.10;;;13.80;99.90;;;;;;5167787;28;20069;-29
2022/01/03 11:05:54;;;;;;;9.67;7.67;;;13.80;99.90;;;;;;5150753;28;20025;-30
2022/01/03 11:11:16;;;;;;;11.43;7.70;;;13.80;99.90;;;;;;5168076;28;20050;-29
2022/01/03 11:13:48;;;;;;;10.87;5.87;;;13.80;99.90;;;;;;5134742;28;20081;-30
2022/01/03 11:16:19;;;;;;;8.30;5.70;;;13.80;99.90;;;;;;5167991;28;20073;-29
2022/01/03 11:18:51;;;;;;;9.77;5.80;;;13.80;99.90;;;;;;5150631;28;20043;-29
2022/01/03 11:21:24;;;;;;;7.97;6.20;;;13.80;99.90;;;;;;5167234;28;20061;-30
2022/01/03 11:24:12;;;;;;;7.23;4.57;;;13.90;99.90;;;;;;5167333;28;20042;-28
2022/01/03 11:26:47;;;;;;;6.17;4.20;;;13.90;99.90;;;;;;5150605;28;20050;-28
2022/01/03 11:29:18;;;;;;;6.23;4.77;;;13.90;99.90;;;;;;5150691;28;20057;-29
2022/01/03 11:31:50;;;;;;;5.60;4.23;;;13.90;99.90;;;;;;5167286;28;20381;-30
2022/01/03 11:34:25;;;;;;;4.97;3.40;;;13.90;99.90;;;;;;5167747;28;20089;-29
2022/01/03 11:36:57;;;;;;;5.10;3.53;;;14.00;99.90;;;;;;5150480;28;20050;-28
2022/01/03 11:39:32;;;;;;;6.63;3.70;;;13.90;99.90;;;;;;5150089;28;20080;-28
2022/01/03 11:42:03;;;;;;;5.57;3.23;;;13.90;99.90;;;;;;5149867;28;20046;-28
2022/01/03 11:44:34;;;;;;;4.40;3.00;;;13.90;99.90;;;;;;5167767;28;20073;-30
2022/01/03 11:47:08;;;;;;;6.10;3.57;;;13.90;99.90;;;;;;5133471;28;20047;-28
2022/01/03 11:49:39;;;;;;;6.47;3.90;;;13.90;99.90;;;;;;5149734;28;20046;-30
2022/01/03 11:52:14;;;;;;;7.17;4.43;;;13.90;99.90;;;;;;5133967;28;20057;-29
2022/01/03 11:54:46;;;;;;;5.43;3.93;;;13.90;99.90;;;;;;5134532;28;20058;-29
2022/01/03 11:57:41;;;;;;;6.40;4.33;;;13.90;99.90;;;;;;5149520;28;20049;-28
2022/01/03 12:06:02;;;;;;;9.63;7.53;;;14.20;99.90;;;;;;5152375;28;20052;-28
2022/01/03 12:08:39;;;;;;;7.45;5.32;;;14.20;99.90;;;;;;5149182;28;20093;-29
2022/01/03 12:11:25;;;;;;;7.77;4.80;;;14.20;99.90;;;;;;5166504;28;20109;-28
2022/01/03 12:14:09;;;;;;;8.07;5.17;;;14.30;99.90;;;;;;5150016;28;20042;-29
2022/01/03 12:16:50;;;;;;;7.50;5.37;;;14.30;99.90;;;;;;5166832;28;20047;-32
2022/01/03 12:19:32;;;;;;;5.13;4.07;;;14.30;99.90;;;;;;5150050;28;20051;-28
2022/01/03 12:22:17;;;;;;;9.40;6.77;;;14.30;99.90;;;;;;5149762;28;20117;-29
2022/01/03 12:24:55;;;;;;;8.40;6.73;;;14.30;99.90;;;;;;5166969;28;20125;-29
2022/01/03 12:27:31;;;;;;;8.50;6.57;;;14.30;99.90;;;;;;5166680;28;20069;-28
2022/01/03 12:30:08;;;;;;;10.43;7.37;;;14.30;99.90;;;;;;5103128;28;20054;-30
2022/01/03 12:32:41;;;;;;;12.13;8.80;;;14.30;99.90;;;;;;5149479;28;20046;-30
2022/01/03 12:35:19;;;;;;;9.43;6.30;;;14.30;99.90;;;;;;5149858;28;20100;-30
2022/01/03 12:37:53;;;;;;;8.53;6.57;;;14.30;99.90;;;;;;5166931;28;20457;-28
2022/01/03 12:40:34;;;;;;;9.47;6.47;;;14.20;99.90;;;;;;5166479;28;20543;-29
2022/01/03 12:43:07;;;;;;;6.77;4.87;;;14.20;99.90;;;;;;5166534;28;20051;-30
2022/01/03 12:45:39;;;;;;;6.18;4.03;;;14.10;99.90;;;;;;5149959;28;20081;-30
2022/01/03 12:48:10;;;;;;;8.37;6.90;;;14.30;99.90;;;;;;5166491;28;20051;-28
2022/01/03 12:50:44;;;;;;;8.00;6.10;;;14.40;99.90;;;;;;5166488;28;20038;-30
2022/01/03 12:53:27;;;;;;;6.63;5.37;;;14.30;99.90;;;;;;5167172;28;20073;-29
2022/01/03 12:56:04;;;;;;;7.43;5.93;;;14.30;99.90;;;;;;5166657;28;20050;-29
2022/01/03 12:58:36;;;;;;;7.77;5.97;;;14.20;99.90;;;;;;5166680;28;20453;-30
2022/01/03 13:01:13;;;;;;;8.47;6.83;;;14.20;99.90;;;;;;5166390;28;20045;-29
2022/01/03 13:03:49;;;;;;;8.97;6.93;;;14.10;99.90;;;;;;5150275;28;20046;-29
2022/01/03 13:06:32;;;;;;;15.73;13.40;;;14.10;99.90;;;;;;5170430;28;20053;-28
2022/01/03 13:09:07;;;;;;;13.97;10.53;;;14.10;99.90;;;;;;5170882;28;20088;-29
2022/01/03 13:11:43;;;;;;;;;;;14.10;99.90;;;;;;5171552;28;20050;-28
2022/01/03 13:14:15;;;;;;;8.73;6.70;;;14.10;99.90;;;;;;5170517;28;19968;-30
2022/01/03 13:16:49;;;;;;;8.93;6.90;;;14.10;99.90;;;;;;5170609;28;20067;-29
2022/01/03 13:19:29;;;;;;;5.43;4.40;;;14.00;99.90;;;;;;5152898;28;20046;-30
2022/01/03 13:22:05;;;;;;;7.10;5.43;;;13.90;99.90;;;;;;5170112;28;20121;-29
2022/01/03 13:24:40;;;;;;;7.97;5.60;;;13.90;99.90;;;;;;5153652;28;20039;-29
2022/01/03 13:27:11;;;;;;;7.30;4.60;;;13.90;99.90;;;;;;5170234;28;20050;-29
2022/01/03 13:29:52;;;;;;;7.77;6.07;;;13.90;99.90;;;;;;5170283;28;20121;-30
2022/01/03 13:32:25;;;;;;;7.03;4.80;;;13.80;99.90;;;;;;5152715;28;20050;-30